sensor_id;sensor_type;location;lat;lon;timestamp;P1;durP1;ratioP1;P2;durP2;ratioP2
13611;SDS011;6877;51.436;6.774;2023-04-10T00:00:49;10.05;;;7.30;;
13611;SDS011;6877;51.436;6.774;2023-04-10T00:03:22;12.18;;;7.90;;
13611;SDS011;6877;51.436;6.774;2023-04-10T00:05:49;10.55;;;7.13;;
13611;SDS011;6877;51.436;6.774;2023-04-10T00:08:15;11.98;;;7.80;;
13611;SDS011;6877;51.436;6.774;2023-04-10T00:10:42;13.27;;;8.60;;
13611;SDS011;6877;51.436;6.774;2023-04-10T00:13:11;13.90;;;8.68;;
13611;SDS011;6877;51.436;6.774;2023-04-10T00:15:37;14.07;;;8.55;;
13611;SDS011;6877;51.436;6.774;2023-04-10T00:18:04;11.23;;;7.47;;
13611;SDS011;6877;51.436;6.774;2023-04-10T00:20:35;12.45;;;7.40;;
13611;SDS011;6877;51.436;6.774;2023-04-10T00:23:02;13.40;;;8.52;;
13611;SDS011;6877;51.436;6.774;2023-04-10T00:25:28;13.30;;;7.38;;
13611;SDS011;6877;51.436;6.774;2023-04-10T00:27:55;12.90;;;7.78;;
13611;SDS011;6877;51.436;6.774;2023-04-10T00:30:26;12.35;;;8.07;;
13611;SDS011;6877;51.436;6.774;2023-04-10T00:32:53;13.00;;;8.38;;
13611;SDS011;6877;51.436;6.774;2023-04-10T00:35:19;13.80;;;8.32;;
13611;SDS011;6877;51.436;6.774;2023-04-10T00:37:46;11.35;;;7.25;;
13611;SDS011;6877;51.436;6.774;2023-04-10T00:40:12;10.98;;;7.47;;
13611;SDS011;6877;51.436;6.774;2023-04-10T00:42:39;14.05;;;7.90;;
13611;SDS011;6877;51.436;6.774;2023-04-10T00:45:05;12.98;;;7.70;;
13611;SDS011;6877;51.436;6.774;2023-04-10T00:47:32;10.15;;;6.63;;
13611;SDS011;6877;51.436;6.774;2023-04-10T00:49:59;13.98;;;7.68;;
13611;SDS011;6877;51.436;6.774;2023-04-10T00:52:31;11.75;;;8.20;;
13611;SDS011;6877;51.436;6.774;2023-04-10T00:55:02;13.57;;;7.57;;
13611;SDS011;6877;51.436;6.774;2023-04-10T00:57:29;10.77;;;7.88;;
13611;SDS011;6877;51.436;6.774;2023-04-10T00:59:55;14.85;;;8.13;;
13611;SDS011;6877;51.436;6.774;2023-04-10T01:02:22;13.90;;;8.40;;
13611;SDS011;6877;51.436;6.774;2023-04-10T01:04:53;13.00;;;8.32;;
13611;SDS011;6877;51.436;6.774;2023-04-10T01:13:27;13.30;;;7.97;;
13611;SDS011;6877;51.436;6.774;2023-04-10T01:16:26;12.48;;;8.27;;
13611;SDS011;6877;51.436;6.774;2023-04-10T01:21:43;10.73;;;8.18;;
13611;SDS011;6877;51.436;6.774;2023-04-10T01:24:17;17.88;;;8.60;;
13611;SDS011;6877;51.436;6.774;2023-04-10T01:29:20;13.52;;;8.45;;
13611;SDS011;6877;51.436;6.774;2023-04-10T01:32:01;12.27;;;8.27;;
13611;SDS011;6877;51.436;6.774;2023-04-10T01:34:36;12.65;;;7.57;;
13611;SDS011;6877;51.436;6.774;2023-04-10T01:40:00;15.75;;;8.60;;
13611;SDS011;6877;51.436;6.774;2023-04-10T01:42:29;15.20;;;8.63;;
13611;SDS011;6877;51.436;6.774;2023-04-10T01:45:02;13.80;;;9.25;;
13611;SDS011;6877;51.436;6.774;2023-04-10T01:47:32;17.67;;;8.60;;
13611;SDS011;6877;51.436;6.774;2023-04-10T01:50:04;14.15;;;8.98;;
13611;SDS011;6877;51.436;6.774;2023-04-10T01:52:32;15.93;;;9.27;;
13611;SDS011;6877;51.436;6.774;2023-04-10T01:55:00;13.73;;;7.88;;
13611;SDS011;6877;51.436;6.774;2023-04-10T01:57:32;14.75;;;8.85;;
13611;SDS011;6877;51.436;6.774;2023-04-10T02:00:06;12.63;;;9.25;;
13611;SDS011;6877;51.436;6.774;2023-04-10T02:02:33;13.82;;;7.93;;
13611;SDS011;6877;51.436;6.774;2023-04-10T02:05:05;11.55;;;7.35;;
13611;SDS011;6877;51.436;6.774;2023-04-10T02:07:35;14.95;;;8.23;;
13611;SDS011;6877;51.436;6.774;2023-04-10T02:10:10;12.15;;;8.00;;
13611;SDS011;6877;51.436;6.774;2023-04-10T02:12:48;13.70;;;8.48;;
13611;SDS011;6877;51.436;6.774;2023-04-10T02:15:19;14.95;;;7.85;;
13611;SDS011;6877;51.436;6.774;2023-04-10T02:17:47;15.05;;;9.23;;
13611;SDS011;6877;51.436;6.774;2023-04-10T02:20:20;13.85;;;8.02;;
13611;SDS011;6877;51.436;6.774;2023-04-10T02:22:53;15.05;;;9.27;;
13611;SDS011;6877;51.436;6.774;2023-04-10T02:25:20;13.48;;;8.25;;
13611;SDS011;6877;51.436;6.774;2023-04-10T02:27:52;15.10;;;8.93;;
13611;SDS011;6877;51.436;6.774;2023-04-10T02:30:18;14.68;;;8.38;;
13611;SDS011;6877;51.436;6.774;2023-04-10T02:32:44;15.85;;;10.07;;
13611;SDS011;6877;51.436;6.774;2023-04-10T02:35:11;11.43;;;8.18;;
13611;SDS011;6877;51.436;6.774;2023-04-10T02:37:37;15.00;;;8.98;;
13611;SDS011;6877;51.436;6.774;2023-04-10T02:40:04;14.23;;;9.25;;
13611;SDS011;6877;51.436;6.774;2023-04-10T02:42:31;13.38;;;9.00;;
13611;SDS011;6877;51.436;6.774;2023-04-10T02:44:57;12.68;;;7.93;;
13611;SDS011;6877;51.436;6.774;2023-04-10T02:47:24;12.48;;;7.57;;
13611;SDS011;6877;51.436;6.774;2023-04-10T02:49:50;13.35;;;8.13;;
13611;SDS011;6877;51.436;6.774;2023-04-10T02:52:16;15.93;;;9.07;;
13611;SDS011;6877;51.436;6.774;2023-04-10T02:54:43;12.45;;;8.57;;
13611;SDS011;6877;51.436;6.774;2023-04-10T02:57:10;15.93;;;9.65;;
13611;SDS011;6877;51.436;6.774;2023-04-10T02:59:36;14.80;;;8.18;;
13611;SDS011;6877;51.436;6.774;2023-04-10T03:02:03;14.68;;;9.07;;
13611;SDS011;6877;51.436;6.774;2023-04-10T03:04:33;13.90;;;8.18;;
13611;SDS011;6877;51.436;6.774;2023-04-10T03:06:59;14.38;;;8.75;;
13611;SDS011;6877;51.436;6.774;2023-04-10T03:09:26;13.88;;;9.18;;
13611;SDS011;6877;51.436;6.774;2023-04-10T03:11:57;11.57;;;7.95;;
13611;SDS011;6877;51.436;6.774;2023-04-10T03:14:23;13.43;;;8.27;;
13611;SDS011;6877;51.436;6.774;2023-04-10T03:16:50;13.90;;;9.07;;
13611;SDS011;6877;51.436;6.774;2023-04-10T03:19:17;17.45;;;9.18;;
13611;SDS011;6877;51.436;6.774;2023-04-10T03:21:44;15.82;;;8.30;;
13611;SDS011;6877;51.436;6.774;2023-04-10T03:24:16;16.15;;;9.07;;
13611;SDS011;6877;51.436;6.774;2023-04-10T03:26:42;14.75;;;8.23;;
13611;SDS011;6877;51.436;6.774;2023-04-10T03:29:09;13.50;;;8.15;;
13611;SDS011;6877;51.436;6.774;2023-04-10T03:31:35;15.25;;;8.32;;
13611;SDS011;6877;51.436;6.774;2023-04-10T03:34:02;13.50;;;8.35;;
13611;SDS011;6877;51.436;6.774;2023-04-10T03:36:33;13.48;;;8.43;;
13611;SDS011;6877;51.436;6.774;2023-04-10T03:39:00;14.82;;;8.90;;
13611;SDS011;6877;51.436;6.774;2023-04-10T03:41:26;14.48;;;8.55;;
13611;SDS011;6877;51.436;6.774;2023-04-10T03:43:53;13.20;;;7.97;;
13611;SDS011;6877;51.436;6.774;2023-04-10T03:46:19;11.90;;;7.68;;
13611;SDS011;6877;51.436;6.774;2023-04-10T03:48:52;13.88;;;9.05;;
13611;SDS011;6877;51.436;6.774;2023-04-10T03:51:19;15.43;;;9.55;;
13611;SDS011;6877;51.436;6.774;2023-04-10T03:53:50;14.18;;;8.68;;
13611;SDS011;6877;51.436;6.774;2023-04-10T03:56:17;11.63;;;7.50;;
13611;SDS011;6877;51.436;6.774;2023-04-10T03:58:43;16.05;;;9.20;;
13611;SDS011;6877;51.436;6.774;2023-04-10T04:01:09;12.95;;;8.27;;
13611;SDS011;6877;51.436;6.774;2023-04-10T04:03:36;15.55;;;8.85;;
13611;SDS011;6877;51.436;6.774;2023-04-10T04:06:02;12.70;;;8.25;;
13611;SDS011;6877;51.436;6.774;2023-04-10T04:08:34;14.10;;;8.02;;
13611;SDS011;6877;51.436;6.774;2023-04-10T04:11:04;12.25;;;8.02;;
13611;SDS011;6877;51.436;6.774;2023-04-10T04:13:31;12.80;;;7.38;;
13611;SDS011;6877;51.436;6.774;2023-04-10T04:15:57;13.68;;;8.38;;
13611;SDS011;6877;51.436;6.774;2023-04-10T04:18:24;14.18;;;8.20;;
13611;SDS011;6877;51.436;6.774;2023-04-10T04:20:50;12.55;;;8.05;;
13611;SDS011;6877;51.436;6.774;2023-04-10T04:23:16;12.40;;;8.35;;
13611;SDS011;6877;51.436;6.774;2023-04-10T04:25:43;16.70;;;8.93;;
13611;SDS011;6877;51.436;6.774;2023-04-10T04:28:09;14.10;;;7.82;;
13611;SDS011;6877;51.436;6.774;2023-04-10T04:30:38;14.40;;;8.43;;
13611;SDS011;6877;51.436;6.774;2023-04-10T04:33:04;11.75;;;8.20;;
13611;SDS011;6877;51.436;6.774;2023-04-10T04:35:31;11.48;;;7.32;;
13611;SDS011;6877;51.436;6.774;2023-04-10T04:38:02;12.95;;;8.30;;
13611;SDS011;6877;51.436;6.774;2023-04-10T04:40:29;9.80;;;7.13;;
13611;SDS011;6877;51.436;6.774;2023-04-10T04:43:00;16.33;;;8.48;;
13611;SDS011;6877;51.436;6.774;2023-04-10T04:45:27;10.10;;;7.55;;
13611;SDS011;6877;51.436;6.774;2023-04-10T04:47:54;14.07;;;8.30;;
13611;SDS011;6877;51.436;6.774;2023-04-10T04:50:21;14.90;;;9.20;;
13611;SDS011;6877;51.436;6.774;2023-04-10T04:52:47;14.10;;;8.48;;
13611;SDS011;6877;51.436;6.774;2023-04-10T04:55:19;14.85;;;9.13;;
13611;SDS011;6877;51.436;6.774;2023-04-10T04:57:45;16.17;;;8.55;;
13611;SDS011;6877;51.436;6.774;2023-04-10T05:00:11;12.23;;;7.55;;
13611;SDS011;6877;51.436;6.774;2023-04-10T05:02:38;17.70;;;7.65;;
13611;SDS011;6877;51.436;6.774;2023-04-10T05:05:04;15.55;;;8.23;;
13611;SDS011;6877;51.436;6.774;2023-04-10T05:07:31;12.38;;;7.40;;
13611;SDS011;6877;51.436;6.774;2023-04-10T05:10:03;13.50;;;7.88;;
13611;SDS011;6877;51.436;6.774;2023-04-10T05:12:29;17.27;;;8.60;;
13611;SDS011;6877;51.436;6.774;2023-04-10T05:14:56;11.45;;;7.47;;
13611;SDS011;6877;51.436;6.774;2023-04-10T05:17:23;13.55;;;8.20;;
13611;SDS011;6877;51.436;6.774;2023-04-10T05:19:49;12.88;;;8.18;;
13611;SDS011;6877;51.436;6.774;2023-04-10T05:22:16;10.27;;;7.40;;
13611;SDS011;6877;51.436;6.774;2023-04-10T05:24:42;14.07;;;8.15;;
13611;SDS011;6877;51.436;6.774;2023-04-10T05:27:08;9.75;;;7.60;;
13611;SDS011;6877;51.436;6.774;2023-04-10T05:29:35;14.00;;;8.23;;
13611;SDS011;6877;51.436;6.774;2023-04-10T05:32:01;15.90;;;8.63;;
13611;SDS011;6877;51.436;6.774;2023-04-10T05:34:28;12.43;;;8.20;;
13611;SDS011;6877;51.436;6.774;2023-04-10T05:36:54;13.15;;;8.70;;
13611;SDS011;6877;51.436;6.774;2023-04-10T05:39:21;14.57;;;7.82;;
13611;SDS011;6877;51.436;6.774;2023-04-10T05:41:47;13.55;;;8.20;;
13611;SDS011;6877;51.436;6.774;2023-04-10T05:44:13;17.58;;;9.45;;
13611;SDS011;6877;51.436;6.774;2023-04-10T05:46:40;12.88;;;8.00;;
13611;SDS011;6877;51.436;6.774;2023-04-10T05:49:06;13.63;;;7.95;;
13611;SDS011;6877;51.436;6.774;2023-04-10T05:51:35;12.40;;;7.80;;
13611;SDS011;6877;51.436;6.774;2023-04-10T05:54:04;11.85;;;7.63;;
13611;SDS011;6877;51.436;6.774;2023-04-10T05:56:30;13.80;;;8.25;;
13611;SDS011;6877;51.436;6.774;2023-04-10T05:58:57;13.30;;;9.10;;
13611;SDS011;6877;51.436;6.774;2023-04-10T06:01:23;13.20;;;8.32;;
13611;SDS011;6877;51.436;6.774;2023-04-10T06:03:54;14.15;;;8.00;;
13611;SDS011;6877;51.436;6.774;2023-04-10T06:06:26;12.60;;;8.10;;
13611;SDS011;6877;51.436;6.774;2023-04-10T06:08:52;11.75;;;8.18;;
13611;SDS011;6877;51.436;6.774;2023-04-10T06:11:19;10.60;;;7.20;;
13611;SDS011;6877;51.436;6.774;2023-04-10T06:13:46;10.57;;;7.10;;
13611;SDS011;6877;51.436;6.774;2023-04-10T06:16:12;9.50;;;6.18;;
13611;SDS011;6877;51.436;6.774;2023-04-10T06:18:45;11.68;;;7.50;;
13611;SDS011;6877;51.436;6.774;2023-04-10T06:21:12;16.88;;;8.05;;
13611;SDS011;6877;51.436;6.774;2023-04-10T06:23:39;24.75;;;8.05;;
13611;SDS011;6877;51.436;6.774;2023-04-10T06:26:11;13.32;;;7.40;;
13611;SDS011;6877;51.436;6.774;2023-04-10T06:28:42;12.02;;;8.20;;
13611;SDS011;6877;51.436;6.774;2023-04-10T06:31:11;12.57;;;7.25;;
13611;SDS011;6877;51.436;6.774;2023-04-10T06:33:37;10.50;;;7.03;;
13611;SDS011;6877;51.436;6.774;2023-04-10T06:36:04;10.40;;;6.90;;
13611;SDS011;6877;51.436;6.774;2023-04-10T06:38:36;12.40;;;7.85;;
13611;SDS011;6877;51.436;6.774;2023-04-10T06:41:05;10.48;;;6.47;;
13611;SDS011;6877;51.436;6.774;2023-04-10T06:43:34;10.55;;;7.32;;
13611;SDS011;6877;51.436;6.774;2023-04-10T06:46:02;10.75;;;7.15;;
13611;SDS011;6877;51.436;6.774;2023-04-10T06:48:32;10.05;;;7.97;;
13611;SDS011;6877;51.436;6.774;2023-04-10T06:50:59;10.23;;;6.90;;
13611;SDS011;6877;51.436;6.774;2023-04-10T06:53:26;11.90;;;7.55;;
13611;SDS011;6877;51.436;6.774;2023-04-10T06:55:52;10.43;;;7.03;;
13611;SDS011;6877;51.436;6.774;2023-04-10T06:58:19;10.52;;;6.85;;
13611;SDS011;6877;51.436;6.774;2023-04-10T07:00:45;12.68;;;6.32;;
13611;SDS011;6877;51.436;6.774;2023-04-10T07:03:17;9.95;;;6.95;;
13611;SDS011;6877;51.436;6.774;2023-04-10T07:05:43;10.82;;;6.85;;
13611;SDS011;6877;51.436;6.774;2023-04-10T07:08:10;10.40;;;6.88;;
13611;SDS011;6877;51.436;6.774;2023-04-10T07:10:36;10.65;;;7.07;;
13611;SDS011;6877;51.436;6.774;2023-04-10T07:13:07;9.43;;;6.40;;
13611;SDS011;6877;51.436;6.774;2023-04-10T07:15:39;11.93;;;6.57;;
13611;SDS011;6877;51.436;6.774;2023-04-10T07:18:05;11.48;;;7.03;;
13611;SDS011;6877;51.436;6.774;2023-04-10T07:20:36;9.82;;;6.45;;
13611;SDS011;6877;51.436;6.774;2023-04-10T07:23:03;13.45;;;7.72;;
13611;SDS011;6877;51.436;6.774;2023-04-10T07:25:29;9.90;;;6.70;;
13611;SDS011;6877;51.436;6.774;2023-04-10T07:27:56;11.15;;;6.57;;
13611;SDS011;6877;51.436;6.774;2023-04-10T07:30:27;9.60;;;6.63;;
13611;SDS011;6877;51.436;6.774;2023-04-10T07:32:53;8.85;;;6.15;;
13611;SDS011;6877;51.436;6.774;2023-04-10T07:35:20;9.40;;;6.80;;
13611;SDS011;6877;51.436;6.774;2023-04-10T07:37:46;11.10;;;6.82;;
13611;SDS011;6877;51.436;6.774;2023-04-10T07:40:16;9.10;;;6.13;;
13611;SDS011;6877;51.436;6.774;2023-04-10T07:42:43;10.05;;;6.55;;
13611;SDS011;6877;51.436;6.774;2023-04-10T07:45:09;8.52;;;6.28;;
13611;SDS011;6877;51.436;6.774;2023-04-10T07:47:36;9.88;;;6.53;;
13611;SDS011;6877;51.436;6.774;2023-04-10T07:50:03;10.05;;;6.97;;
13611;SDS011;6877;51.436;6.774;2023-04-10T07:52:34;9.98;;;6.25;;
13611;SDS011;6877;51.436;6.774;2023-04-10T07:55:01;12.52;;;7.47;;
13611;SDS011;6877;51.436;6.774;2023-04-10T07:57:28;10.07;;;6.45;;
13611;SDS011;6877;51.436;6.774;2023-04-10T08:00:02;10.13;;;6.70;;
13611;SDS011;6877;51.436;6.774;2023-04-10T08:02:28;9.13;;;6.13;;
13611;SDS011;6877;51.436;6.774;2023-04-10T08:04:54;7.38;;;5.57;;
13611;SDS011;6877;51.436;6.774;2023-04-10T08:07:21;9.60;;;5.95;;
13611;SDS011;6877;51.436;6.774;2023-04-10T08:09:47;6.80;;;5.68;;
13611;SDS011;6877;51.436;6.774;2023-04-10T08:12:14;8.25;;;6.05;;
13611;SDS011;6877;51.436;6.774;2023-04-10T08:14:40;8.98;;;6.47;;
13611;SDS011;6877;51.436;6.774;2023-04-10T08:17:13;7.90;;;5.85;;
13611;SDS011;6877;51.436;6.774;2023-04-10T08:19:45;6.00;;;5.30;;
13611;SDS011;6877;51.436;6.774;2023-04-10T08:22:11;9.25;;;5.07;;
13611;SDS011;6877;51.436;6.774;2023-04-10T08:24:38;9.43;;;6.10;;
13611;SDS011;6877;51.436;6.774;2023-04-10T08:27:09;7.85;;;5.35;;
13611;SDS011;6877;51.436;6.774;2023-04-10T08:29:35;11.27;;;5.57;;
13611;SDS011;6877;51.436;6.774;2023-04-10T08:32:02;6.78;;;5.53;;
13611;SDS011;6877;51.436;6.774;2023-04-10T08:34:28;10.63;;;5.82;;
13611;SDS011;6877;51.436;6.774;2023-04-10T08:37:00;7.20;;;5.75;;
13611;SDS011;6877;51.436;6.774;2023-04-10T08:39:33;7.07;;;5.18;;
13611;SDS011;6877;51.436;6.774;2023-04-10T08:42:00;8.00;;;5.50;;
13611;SDS011;6877;51.436;6.774;2023-04-10T08:44:27;7.10;;;5.18;;
13611;SDS011;6877;51.436;6.774;2023-04-10T08:46:53;6.82;;;5.43;;
13611;SDS011;6877;51.436;6.774;2023-04-10T08:49:30;6.60;;;4.88;;
13611;SDS011;6877;51.436;6.774;2023-04-10T08:52:06;7.78;;;5.65;;
13611;SDS011;6877;51.436;6.774;2023-04-10T08:54:36;7.78;;;5.60;;
13611;SDS011;6877;51.436;6.774;2023-04-10T08:57:04;7.20;;;5.15;;
13611;SDS011;6877;51.436;6.774;2023-04-10T08:59:33;6.32;;;5.03;;
13611;SDS011;6877;51.436;6.774;2023-04-10T09:02:00;6.53;;;5.13;;
13611;SDS011;6877;51.436;6.774;2023-04-10T09:04:26;6.78;;;5.28;;
13611;SDS011;6877;51.436;6.774;2023-04-10T09:06:58;7.20;;;5.18;;
13611;SDS011;6877;51.436;6.774;2023-04-10T09:09:25;6.30;;;5.15;;
13611;SDS011;6877;51.436;6.774;2023-04-10T09:11:59;6.72;;;5.00;;
13611;SDS011;6877;51.436;6.774;2023-04-10T09:14:28;7.72;;;4.88;;
13611;SDS011;6877;51.436;6.774;2023-04-10T09:19:42;7.00;;;4.38;;
13611;SDS011;6877;51.436;6.774;2023-04-10T09:22:10;6.75;;;5.10;;
13611;SDS011;6877;51.436;6.774;2023-04-10T09:24:38;5.90;;;4.63;;
13611;SDS011;6877;51.436;6.774;2023-04-10T09:27:05;9.80;;;4.80;;
13611;SDS011;6877;51.436;6.774;2023-04-10T09:29:42;6.05;;;4.15;;
13611;SDS011;6877;51.436;6.774;2023-04-10T09:32:11;6.85;;;3.90;;
13611;SDS011;6877;51.436;6.774;2023-04-10T09:34:52;5.22;;;4.32;;
13611;SDS011;6877;51.436;6.774;2023-04-10T09:37:21;6.13;;;4.35;;
13611;SDS011;6877;51.436;6.774;2023-04-10T09:40:01;6.60;;;4.20;;
13611;SDS011;6877;51.436;6.774;2023-04-10T09:42:35;5.65;;;4.35;;
13611;SDS011;6877;51.436;6.774;2023-04-10T09:45:02;6.18;;;3.88;;
13611;SDS011;6877;51.436;6.774;2023-04-10T09:47:30;5.80;;;4.50;;
13611;SDS011;6877;51.436;6.774;2023-04-10T09:50:01;9.77;;;5.60;;
13611;SDS011;6877;51.436;6.774;2023-04-10T09:52:32;8.93;;;4.35;;
13611;SDS011;6877;51.436;6.774;2023-04-10T09:55:05;5.07;;;4.10;;
13611;SDS011;6877;51.436;6.774;2023-04-10T09:57:33;6.03;;;4.50;;
13611;SDS011;6877;51.436;6.774;2023-04-10T10:00:05;5.93;;;4.50;;
13611;SDS011;6877;51.436;6.774;2023-04-10T10:02:35;7.75;;;4.35;;
13611;SDS011;6877;51.436;6.774;2023-04-10T10:05:05;8.02;;;4.63;;
13611;SDS011;6877;51.436;6.774;2023-04-10T10:07:32;5.65;;;4.13;;
13611;SDS011;6877;51.436;6.774;2023-04-10T10:10:05;7.80;;;4.82;;
13611;SDS011;6877;51.436;6.774;2023-04-10T10:15:15;5.10;;;4.15;;
13611;SDS011;6877;51.436;6.774;2023-04-10T10:20:29;6.88;;;4.63;;
13611;SDS011;6877;51.436;6.774;2023-04-10T10:22:57;6.13;;;4.40;;
13611;SDS011;6877;51.436;6.774;2023-04-10T10:25:27;5.70;;;4.18;;
13611;SDS011;6877;51.436;6.774;2023-04-10T10:27:54;5.10;;;4.40;;
13611;SDS011;6877;51.436;6.774;2023-04-10T10:30:21;6.72;;;3.90;;
13611;SDS011;6877;51.436;6.774;2023-04-10T10:32:47;5.15;;;3.70;;
13611;SDS011;6877;51.436;6.774;2023-04-10T10:35:15;5.30;;;4.22;;
13611;SDS011;6877;51.436;6.774;2023-04-10T10:37:43;4.53;;;3.80;;
13611;SDS011;6877;51.436;6.774;2023-04-10T10:42:56;5.55;;;4.00;;
13611;SDS011;6877;51.436;6.774;2023-04-10T10:45:40;5.43;;;3.70;;
13611;SDS011;6877;51.436;6.774;2023-04-10T10:48:15;5.97;;;4.10;;
13611;SDS011;6877;51.436;6.774;2023-04-10T10:50:55;5.65;;;4.45;;
13611;SDS011;6877;51.436;6.774;2023-04-10T10:53:42;7.53;;;3.90;;
13611;SDS011;6877;51.436;6.774;2023-04-10T10:58:47;6.78;;;4.38;;
13611;SDS011;6877;51.436;6.774;2023-04-10T11:01:15;4.80;;;3.58;;
13611;SDS011;6877;51.436;6.774;2023-04-10T11:03:47;4.65;;;3.83;;
13611;SDS011;6877;51.436;6.774;2023-04-10T11:06:17;5.75;;;4.45;;
13611;SDS011;6877;51.436;6.774;2023-04-10T11:08:51;5.45;;;3.78;;
13611;SDS011;6877;51.436;6.774;2023-04-10T11:11:21;5.97;;;4.00;;
13611;SDS011;6877;51.436;6.774;2023-04-10T11:19:09;5.93;;;3.50;;
13611;SDS011;6877;51.436;6.774;2023-04-10T11:32:56;6.07;;;3.85;;
13611;SDS011;6877;51.436;6.774;2023-04-10T11:35:29;6.13;;;3.88;;
13611;SDS011;6877;51.436;6.774;2023-04-10T11:38:08;6.07;;;4.20;;
13611;SDS011;6877;51.436;6.774;2023-04-10T11:40:35;7.85;;;4.10;;
13611;SDS011;6877;51.436;6.774;2023-04-10T11:43:17;5.35;;;4.00;;
13611;SDS011;6877;51.436;6.774;2023-04-10T11:45:44;5.35;;;4.07;;
13611;SDS011;6877;51.436;6.774;2023-04-10T11:48:15;7.88;;;3.70;;
13611;SDS011;6877;51.436;6.774;2023-04-10T11:50:42;5.20;;;3.95;;
13611;SDS011;6877;51.436;6.774;2023-04-10T11:53:18;5.57;;;3.83;;
13611;SDS011;6877;51.436;6.774;2023-04-10T11:55:46;5.43;;;4.30;;
13611;SDS011;6877;51.436;6.774;2023-04-10T11:58:21;6.60;;;4.03;;
13611;SDS011;6877;51.436;6.774;2023-04-10T12:00:58;5.97;;;4.22;;
13611;SDS011;6877;51.436;6.774;2023-04-10T12:03:37;4.65;;;3.67;;
13611;SDS011;6877;51.436;6.774;2023-04-10T12:06:05;7.70;;;4.00;;
13611;SDS011;6877;51.436;6.774;2023-04-10T12:08:40;5.03;;;3.78;;
13611;SDS011;6877;51.436;6.774;2023-04-10T12:11:08;5.63;;;3.70;;
13611;SDS011;6877;51.436;6.774;2023-04-10T12:13:35;7.32;;;3.15;;
13611;SDS011;6877;51.436;6.774;2023-04-10T12:16:03;7.57;;;4.18;;
13611;SDS011;6877;51.436;6.774;2023-04-10T12:18:37;5.03;;;3.92;;
13611;SDS011;6877;51.436;6.774;2023-04-10T12:21:08;5.00;;;3.75;;
13611;SDS011;6877;51.436;6.774;2023-04-10T12:23:35;5.60;;;3.83;;
13611;SDS011;6877;51.436;6.774;2023-04-10T12:26:07;7.82;;;3.47;;
13611;SDS011;6877;51.436;6.774;2023-04-10T12:28:52;5.55;;;3.60;;
13611;SDS011;6877;51.436;6.774;2023-04-10T12:31:26;6.40;;;4.18;;
13611;SDS011;6877;51.436;6.774;2023-04-10T12:33:57;4.53;;;3.30;;
13611;SDS011;6877;51.436;6.774;2023-04-10T12:36:30;3.65;;;3.03;;
13611;SDS011;6877;51.436;6.774;2023-04-10T12:39:00;4.68;;;3.80;;
13611;SDS011;6877;51.436;6.774;2023-04-10T12:41:29;9.27;;;4.28;;
13611;SDS011;6877;51.436;6.774;2023-04-10T12:44:06;7.13;;;3.95;;
13611;SDS011;6877;51.436;6.774;2023-04-10T12:46:33;7.13;;;3.60;;
13611;SDS011;6877;51.436;6.774;2023-04-10T12:51:49;3.92;;;3.15;;
13611;SDS011;6877;51.436;6.774;2023-04-10T12:54:25;4.10;;;3.70;;
13611;SDS011;6877;51.436;6.774;2023-04-10T12:56:54;5.60;;;3.55;;
13611;SDS011;6877;51.436;6.774;2023-04-10T12:59:20;5.55;;;3.65;;
13611;SDS011;6877;51.436;6.774;2023-04-10T13:01:47;6.10;;;2.90;;
13611;SDS011;6877;51.436;6.774;2023-04-10T13:04:19;4.53;;;3.35;;
13611;SDS011;6877;51.436;6.774;2023-04-10T13:06:46;4.78;;;3.17;;
13611;SDS011;6877;51.436;6.774;2023-04-10T13:09:18;6.55;;;3.60;;
13611;SDS011;6877;51.436;6.774;2023-04-10T13:11:45;5.70;;;3.97;;
13611;SDS011;6877;51.436;6.774;2023-04-10T13:14:11;3.75;;;3.30;;
13611;SDS011;6877;51.436;6.774;2023-04-10T13:16:38;6.45;;;3.65;;
13611;SDS011;6877;51.436;6.774;2023-04-10T13:19:04;6.50;;;4.00;;
13611;SDS011;6877;51.436;6.774;2023-04-10T13:21:35;4.97;;;3.60;;
13611;SDS011;6877;51.436;6.774;2023-04-10T13:24:02;4.53;;;3.50;;
13611;SDS011;6877;51.436;6.774;2023-04-10T13:26:28;5.35;;;3.50;;
13611;SDS011;6877;51.436;6.774;2023-04-10T13:28:55;4.45;;;3.20;;
13611;SDS011;6877;51.436;6.774;2023-04-10T13:31:26;5.50;;;3.70;;
13611;SDS011;6877;51.436;6.774;2023-04-10T13:33:52;5.38;;;3.58;;
13611;SDS011;6877;51.436;6.774;2023-04-10T13:36:19;5.55;;;3.42;;
13611;SDS011;6877;51.436;6.774;2023-04-10T13:38:45;4.68;;;3.40;;
13611;SDS011;6877;51.436;6.774;2023-04-10T13:41:17;4.07;;;3.28;;
13611;SDS011;6877;51.436;6.774;2023-04-10T13:43:43;6.35;;;3.35;;
13611;SDS011;6877;51.436;6.774;2023-04-10T13:46:09;4.78;;;3.53;;
13611;SDS011;6877;51.436;6.774;2023-04-10T13:48:36;3.90;;;3.03;;
13611;SDS011;6877;51.436;6.774;2023-04-10T13:51:06;3.90;;;3.00;;
13611;SDS011;6877;51.436;6.774;2023-04-10T13:53:33;5.47;;;3.30;;
13611;SDS011;6877;51.436;6.774;2023-04-10T13:55:59;4.60;;;3.47;;
13611;SDS011;6877;51.436;6.774;2023-04-10T13:58:26;6.03;;;3.75;;
13611;SDS011;6877;51.436;6.774;2023-04-10T14:00:56;10.43;;;3.13;;
13611;SDS011;6877;51.436;6.774;2023-04-10T14:03:28;6.03;;;3.22;;
13611;SDS011;6877;51.436;6.774;2023-04-10T14:05:54;5.07;;;3.55;;
13611;SDS011;6877;51.436;6.774;2023-04-10T14:08:21;5.35;;;3.60;;
13611;SDS011;6877;51.436;6.774;2023-04-10T14:10:47;5.15;;;3.20;;
13611;SDS011;6877;51.436;6.774;2023-04-10T14:13:17;5.47;;;3.20;;
13611;SDS011;6877;51.436;6.774;2023-04-10T14:15:43;4.53;;;2.95;;
13611;SDS011;6877;51.436;6.774;2023-04-10T14:18:10;5.65;;;3.40;;
13611;SDS011;6877;51.436;6.774;2023-04-10T14:20:41;5.32;;;3.00;;
13611;SDS011;6877;51.436;6.774;2023-04-10T14:23:08;3.92;;;2.80;;
13611;SDS011;6877;51.436;6.774;2023-04-10T14:25:35;5.70;;;2.47;;
13611;SDS011;6877;51.436;6.774;2023-04-10T14:28:01;3.88;;;2.80;;
13611;SDS011;6877;51.436;6.774;2023-04-10T14:30:40;3.15;;;2.47;;
13611;SDS011;6877;51.436;6.774;2023-04-10T14:33:11;3.65;;;2.83;;
13611;SDS011;6877;51.436;6.774;2023-04-10T14:35:38;2.78;;;2.38;;
13611;SDS011;6877;51.436;6.774;2023-04-10T14:38:04;3.47;;;2.75;;
13611;SDS011;6877;51.436;6.774;2023-04-10T14:40:31;2.92;;;2.58;;
13611;SDS011;6877;51.436;6.774;2023-04-10T14:42:57;2.75;;;2.10;;
13611;SDS011;6877;51.436;6.774;2023-04-10T14:45:28;2.70;;;2.30;;
13611;SDS011;6877;51.436;6.774;2023-04-10T14:47:56;4.20;;;2.80;;
13611;SDS011;6877;51.436;6.774;2023-04-10T14:50:22;3.75;;;3.03;;
13611;SDS011;6877;51.436;6.774;2023-04-10T14:52:54;3.28;;;2.78;;
13611;SDS011;6877;51.436;6.774;2023-04-10T14:55:20;2.90;;;2.40;;
13611;SDS011;6877;51.436;6.774;2023-04-10T14:57:47;5.10;;;2.70;;
13611;SDS011;6877;51.436;6.774;2023-04-10T15:00:18;6.00;;;3.53;;
13611;SDS011;6877;51.436;6.774;2023-04-10T15:02:50;4.65;;;3.45;;
13611;SDS011;6877;51.436;6.774;2023-04-10T15:05:21;4.57;;;3.42;;
13611;SDS011;6877;51.436;6.774;2023-04-10T15:07:48;4.40;;;2.95;;
13611;SDS011;6877;51.436;6.774;2023-04-10T15:10:19;4.50;;;3.28;;
13611;SDS011;6877;51.436;6.774;2023-04-10T15:12:46;3.88;;;3.33;;
13611;SDS011;6877;51.436;6.774;2023-04-10T15:15:17;3.38;;;2.58;;
13611;SDS011;6877;51.436;6.774;2023-04-10T15:17:44;5.93;;;3.20;;
13611;SDS011;6877;51.436;6.774;2023-04-10T15:20:15;6.40;;;2.60;;
13611;SDS011;6877;51.436;6.774;2023-04-10T15:22:47;3.38;;;2.65;;
13611;SDS011;6877;51.436;6.774;2023-04-10T15:25:13;3.78;;;3.17;;
13611;SDS011;6877;51.436;6.774;2023-04-10T15:27:40;4.50;;;2.75;;
13611;SDS011;6877;51.436;6.774;2023-04-10T15:30:06;3.97;;;3.28;;
13611;SDS011;6877;51.436;6.774;2023-04-10T15:32:38;4.32;;;2.55;;
13611;SDS011;6877;51.436;6.774;2023-04-10T15:35:04;4.22;;;2.78;;
13611;SDS011;6877;51.436;6.774;2023-04-10T15:37:33;6.50;;;2.80;;
13611;SDS011;6877;51.436;6.774;2023-04-10T15:40:05;3.30;;;2.83;;
13611;SDS011;6877;51.436;6.774;2023-04-10T15:42:32;3.72;;;2.80;;
13611;SDS011;6877;51.436;6.774;2023-04-10T15:44:59;3.53;;;3.20;;
13611;SDS011;6877;51.436;6.774;2023-04-10T15:47:25;4.72;;;3.25;;
13611;SDS011;6877;51.436;6.774;2023-04-10T15:49:52;3.38;;;2.88;;
13611;SDS011;6877;51.436;6.774;2023-04-10T15:52:23;3.47;;;3.10;;